WetterOnline ( http://www.wetteronline.de )

Wetter aktuell Gießen

Aktuelles Wetter: Gießen (195m)

6-stündlich | Neueste Meldungen
Ortszeit Temperatur Wetter
So, 19.08. 14:00 27.7° C wolkenlos
So, 19.08. 8:00 13.9° C wolkenlos
So, 19.08. 2:00 15.1° C leicht bewölkt
Sa, 18.08. 20:00 25.2° C wolkenlos
Sa, 18.08. 14:00 24.9° C wolkenlos
Sa, 18.08. 8:00 15.4° C bewölkt
Sa, 18.08. 2:00 18.1° C bewölkt
Fr, 17.08. 20:00 23.2° C fast wolkenlos
Ortszeit Temperatur Wetter
So, 19.08. 17:10 29.2° C wolkenlos
So, 19.08. 17:00 29.7° C fast wolkenlos
So, 19.08. 16:50 29.7° C fast wolkenlos
So, 19.08. 16:40 29.2° C leicht bewölkt
So, 19.08. 16:30 29.4° C wolkig
So, 19.08. 16:20 29.4° C wolkig
So, 19.08. 16:00 28.5° C leicht bewölkt
So, 19.08. 15:30 28.6° C wolkenlos
So, 19.08. 15:00 27.7° C fast wolkenlos
So, 19.08. 14:30 27.9° C wolkenlos
So, 19.08. 14:00 27.7° C wolkenlos
Ortszeit Relative Feuchte Sichtweite
So, 19.08. 14:00 26% 21 km
So, 19.08. 8:00 69% 30 km
So, 19.08. 2:00 63% 45 km
Sa, 18.08. 20:00 31% 70 km
Sa, 18.08. 14:00 31% 23 km
Sa, 18.08. 8:00 73% 35 km
Sa, 18.08. 2:00 74% 16 km
Fr, 17.08. 20:00 58% 21 km
Ortszeit Relative Feuchte Sichtweite
So, 19.08. 17:10 29% -
So, 19.08. 17:00 27% 24 km
So, 19.08. 16:50 27% -
So, 19.08. 16:40 27% -
So, 19.08. 16:30 26% 18 km
So, 19.08. 16:20 26% -
So, 19.08. 16:00 26% 15 km
So, 19.08. 15:30 26% 12 km
So, 19.08. 15:00 26% 15 km
So, 19.08. 14:30 23% 11 km
So, 19.08. 14:00 26% 21 km
Ortszeit Niederschlagsmenge Niederschlagsart
So, 19.08. 14:00 0.0 l/m2 in 6 Std. -
So, 19.08. 8:00 0.0 l/m2 in 12 Std. -
So, 19.08. 2:00 0.0 l/m2 in 6 Std. -
Sa, 18.08. 20:00 0.0 l/m2 in 12 Std. -
Sa, 18.08. 14:00 0.0 l/m2 in 6 Std. -
Sa, 18.08. 8:00 0.0 l/m2 in 12 Std. -
Sa, 18.08. 2:00 0.0 l/m2 in 6 Std. -
Fr, 17.08. 20:00 0.0 l/m2 in 12 Std. -
Ortszeit Niederschlagsmenge Niederschlagsart
So, 19.08. 17:10 keine Meldung -
So, 19.08. 17:00 0.0 l/m2 in 1 Std. -
So, 19.08. 16:50 keine Meldung -
So, 19.08. 16:40 keine Meldung -
So, 19.08. 16:30 0.0 l/m2 in 1 Std. -
So, 19.08. 16:20 keine Meldung -
So, 19.08. 16:00 0.0 l/m2 in 1 Std. -
So, 19.08. 15:30 0.0 l/m2 in 1 Std. -
So, 19.08. 15:00 0.0 l/m2 in 1 Std. -
So, 19.08. 14:30 0.0 l/m2 in 1 Std. -
So, 19.08. 14:00 0.0 l/m2 in 1 Std. -
Ortszeit Stärke Spitze Richtung
km/h Bft. km/h Grad Sektor
So, 19.08. 14:00 17 3 31 230° SW
So, 19.08. 8:00 2 1 7 110° O
So, 19.08. 2:00 4 1 14 220° SW
Sa, 18.08. 20:00 9 2 30 270° W
Sa, 18.08. 14:00 11 2 32 250° W
Sa, 18.08. 8:00 4 1 11 210° SW
Sa, 18.08. 2:00 7 2 29 320° NW
Fr, 17.08. 20:00 14 3 40 340° N
Ortszeit Stärke Spitze Richtung
km/h Bft. km/h Grad Sektor
So, 19.08. 17:10 18 3 - 230° SW
So, 19.08. 17:00 18 3 36 250° W
So, 19.08. 16:50 18 3 - 250° W
So, 19.08. 16:40 17 3 - 230° SW
So, 19.08. 16:30 20 4 31 260° W
So, 19.08. 16:20 20 4 - 260° W
So, 19.08. 16:00 18 3 36 270° W
So, 19.08. 15:30 22 4 32 250° W
So, 19.08. 15:00 18 3 40 240° SW
So, 19.08. 14:30 25 4 32 220° SW
So, 19.08. 14:00 17 3 31 230° SW
Ortszeit Untergrenze Bedeckung Gattung
total tief tief mittel hoch
So, 19.08. 14:00 - 0/8 0/8 - - -
So, 19.08. 8:00 - 0/8 0/8 - - -
So, 19.08. 2:00 10500 m 4/8 0/8 - - -
Sa, 18.08. 20:00 - 0/8 0/8 - - -
Sa, 18.08. 14:00 - 0/8 0/8 - - -
Sa, 18.08. 8:00 1350 m 8/8 4/8 - - -
Sa, 18.08. 2:00 1260 m 7/8 7/8 - - -
Fr, 17.08. 20:00 9000 m 2/8 0/8 - - -
Ortszeit Bedeckungsgrad in Achtel und Wolkenuntergrenze
So, 19.08. 17:10 keine Wolken
So, 19.08. 17:00 1(12000m)
So, 19.08. 16:50 1(12000m)
So, 19.08. 16:40 3(12000m)
So, 19.08. 16:30 7(12000m)
So, 19.08. 16:20 7(12000m)
So, 19.08. 16:00 6(12000m)
So, 19.08. 15:30 keine Wolken
So, 19.08. 15:00 1(12000m)
So, 19.08. 14:30 keine Wolken
So, 19.08. 14:00 keine Wolken
Ortszeit Luftdruck NN (hPa) Tendenz (hPa in 3 Std.)
So, 19.08. 14:00 1020 - 1,6
So, 19.08. 8:00 1023 + 0,1
So, 19.08. 2:00 1022 + 0,3
Sa, 18.08. 20:00 1020 0,0
Sa, 18.08. 14:00 1021 - 0,6
Sa, 18.08. 8:00 1022 + 0,8
Sa, 18.08. 2:00 1020 + 1,0
Fr, 17.08. 20:00 1016 + 1,5
Ortszeit Luftdruck NN (hPa) Tendenz (hPa in 3 Std.)
So, 19.08. 17:10 1017 keine Meldung
So, 19.08. 17:00 1017 - 1,9
So, 19.08. 16:50 1017 keine Meldung
So, 19.08. 16:40 1018 keine Meldung
So, 19.08. 16:30 1018 - 1,8
So, 19.08. 16:20 1018 keine Meldung
So, 19.08. 16:00 1018 - 1,9
So, 19.08. 15:30 1019 - 1,9
So, 19.08. 15:00 1019 - 1,7
So, 19.08. 14:30 1019 - 1,6
So, 19.08. 14:00 1020 - 1,6
Ortszeit Schneehöhe (cm)
So, 19.08. 14:00 -
So, 19.08. 8:00 -
So, 19.08. 2:00 -
Sa, 18.08. 20:00 -
Sa, 18.08. 14:00 -
Sa, 18.08. 8:00 -
Sa, 18.08. 2:00 -
Fr, 17.08. 20:00 -
Ortszeit Schneehöhe (cm)
So, 19.08. 17:10 -
So, 19.08. 17:00 -
So, 19.08. 16:50 -
So, 19.08. 16:40 -
So, 19.08. 16:30 -
So, 19.08. 16:20 -
So, 19.08. 16:00 -
So, 19.08. 15:30 -
So, 19.08. 15:00 -
So, 19.08. 14:30 -
So, 19.08. 14:00 -
Link zu dieser Seite / Seite empfehlen

Das Wetter in ...